Dorchester, United Kingdom
Current Conditions -  °F | °C
As of 12:50 PM on Tuesday 21 Oct 2014 (Local Time) from EGDY Reporting Station
Scattered Clouds Scattered Clouds  
Wind Chill: 55°   Ceiling: Unl
Heat Index: 55°   Visibility: 6mi
Dew Point: 39°   Wind: 31mph
Humidity: 54%   Direction: 300°WNW
Pressure: 29.85"   Gusts: 45mph
Location:  50.72°N, 2.43°W
Report Text: EGDY 211150Z 30027G39KT 9999 FEW012 SCT030 13/04 Q1011 BLU NOSIG
Loading
Personal Weather Stations






























Interactive Weather Map
Tropical Storm Tracking
New forecast layout! Learn more

10-Day Weather Forecast

Advertisements
Track Severe Weather on mobile